Weather reports worldwide

Advertisment
Vandellos, Spain (8169): temperature & dewpoint: 12.01.2020 13:00:00 - 18.01.2020 13:00:00 (CET)Vandellos, Spain (8169): wind speed & gusts: 12.01.2020 13:00:00 - 18.01.2020 13:00:00 (CET)Vandellos, Spain (8169): wind direction: 12.01.2020 13:00:00 - 18.01.2020 13:00:00 (CET)Vandellos, Spain (8169): precipitation: 12.01.2020 13:00:00 - 18.01.2020 13:00:00 (CET)
Date & Time tt [°C] td [°C] ff [km/h] ff [kn] fx [km/h] fx [kn] dd rr [mm]
18.01.2020 13:00:00 - - - - - - - -
18.01.2020 12:00:00 13,3 1,7 6 3 17 9 S 0,0
18.01.2020 11:00:00 12,7 1,9 3 1 14 8 SSE 0,0
18.01.2020 10:00:00 11,3 0,0 6 3 13 7 NW 0,0
18.01.2020 09:00:00 12,1 0,2 9 5 25 13 NW 0,0
18.01.2020 08:00:00 11,7 0,2 7 4 24 13 NW 0,0
18.01.2020 07:00:00 11,0 -0,3 3 2 20 11 N -
18.01.2020 06:00:00 11,5 0,0 12 6 34 18 NW 0,0
18.01.2020 05:00:00 10,4 -0,3 13 7 28 15 NW 0,0
18.01.2020 04:00:00 9,0 -0,7 6 3 18 10 SSW 0,0
18.01.2020 03:00:00 8,6 -0,7 8 5 22 12 SSW 0,0
18.01.2020 02:00:00 8,8 -1,0 5 3 17 9 SSW 0,0
18.01.2020 01:00:00 9,4 -0,5 7 4 19 10 SW -
18.01.2020 00:00:00 9,2 -1,4 6 3 17 9 SSW 0,0
17.01.2020 23:00:00 11,0 -1,4 6 3 23 12 SW 0,0
17.01.2020 22:00:00 11,1 -1,4 4 2 31 17 SSW 0,0
17.01.2020 21:00:00 12,7 -1,0 10 5 29 16 S 0,0
17.01.2020 20:00:00 13,3 0,0 8 5 31 17 WNW 0,0
17.01.2020 19:00:00 13,5 0,4 1 1 31 17 ENE -
17.01.2020 18:00:00 14,7 1,5 11 6 50 27 NNW 0,0
17.01.2020 17:00:00 16,4 2,5 16 9 47 25 W 0,0
17.01.2020 16:00:00 16,8 2,5 13 7 47 25 WNW 0,0
17.01.2020 15:00:00 17,1 2,7 7 4 36 19 SW 0,0
17.01.2020 14:00:00 17,3 2,9 16 9 45 24 WSW 0,0
17.01.2020 13:00:00 16,3 2,7 12 7 44 24 WNW -
17.01.2020 12:00:00 15,5 2,3 12 7 41 22 W 0,0
17.01.2020 11:00:00 15,0 1,9 9 5 30 16 SW 0,0
17.01.2020 10:00:00 13,4 2,3 8 4 19 11 SW 0,0
17.01.2020 09:00:00 7,8 6,8 1 0 6 4 NNE 0,0
17.01.2020 08:00:00 7,2 6,2 1 1 7 4 WSW 0,0
17.01.2020 07:00:00 6,8 6,1 1 0 6 3 WNW -
17.01.2020 06:00:00 6,9 5,9 0 0 5 3 SW 0,0
17.01.2020 05:00:00 6,7 5,8 0 0 5 3 N 0,0
17.01.2020 04:00:00 7,1 6,2 2 1 8 4 WSW 0,0
17.01.2020 03:00:00 7,8 6,7 4 2 8 4 WSW 0,0
17.01.2020 02:00:00 8,5 7,4 1 0 7 4 ESE 0,0
17.01.2020 01:00:00 9,7 8,7 4 2 10 6 SW -
17.01.2020 00:00:00 9,4 8,0 1 1 8 4 SSW 0,0
16.01.2020 23:00:00 8,6 7,4 0 0 4 2 N 0,0
16.01.2020 22:00:00 9,0 7,1 1 1 6 3 N 0,0
16.01.2020 21:00:00 10,4 7,4 5 3 8 4 NW 0,0
16.01.2020 20:00:00 10,0 8,7 3 2 8 4 WNW 0,0
16.01.2020 19:00:00 9,6 8,0 0 0 4 2 WSW -
16.01.2020 18:00:00 10,8 8,4 0 0 5 3 NNE 0,0
16.01.2020 17:00:00 12,4 9,0 1 1 9 5 E 0,0
16.01.2020 16:00:00 13,0 8,7 3 2 9 5 ESE 0,0
16.01.2020 15:00:00 13,3 8,4 5 3 10 5 E 0,0
16.01.2020 14:00:00 14,1 8,3 3 2 11 6 ESE 0,0
16.01.2020 13:00:00 14,2 8,4 5 3 11 6 SE -
16.01.2020 12:00:00 13,8 7,6 4 2 9 5 SSE 0,0
16.01.2020 11:00:00 12,5 7,1 3 2 8 5 E 0,0
16.01.2020 10:00:00 9,0 7,1 0 0 4 2 ENE 0,0
16.01.2020 09:00:00 6,6 5,6 0 0 4 2 N 0,0
16.01.2020 08:00:00 6,2 4,8 1 0 4 2 N 0,0
16.01.2020 07:00:00 5,9 3,8 1 0 4 2 NE -
16.01.2020 06:00:00 6,2 3,9 1 0 8 4 W 0,0
16.01.2020 05:00:00 6,3 3,6 4 2 7 4 WSW 0,0
16.01.2020 04:00:00 6,2 3,0 1 0 5 3 WNW 0,0
16.01.2020 03:00:00 6,7 2,9 1 1 6 3 WNW 0,0
16.01.2020 02:00:00 7,0 2,5 1 1 8 4 N 0,0
16.01.2020 01:00:00 8,5 3,0 4 2 9 5 NNE -
16.01.2020 00:00:00 7,1 2,3 3 1 7 4 NE 0,0
15.01.2020 23:00:00 8,0 2,9 4 2 10 5 N 0,0
15.01.2020 22:00:00 7,2 2,1 0 0 3 2 NNE 0,0
15.01.2020 21:00:00 8,2 2,7 1 1 9 5 SSW 0,0
15.01.2020 20:00:00 7,7 2,5 2 1 8 4 SSW 0,0
15.01.2020 19:00:00 9,2 3,8 4 2 11 6 SSW -
15.01.2020 18:00:00 9,6 4,6 3 2 13 7 S 0,0
15.01.2020 17:00:00 11,9 4,8 5 3 18 10 S 0,0
15.01.2020 16:00:00 12,4 3,4 7 4 22 12 SSW 0,0
15.01.2020 15:00:00 13,6 2,5 6 3 17 9 S 0,0
15.01.2020 14:00:00 14,1 2,9 2 1 13 7 SSE 0,0
15.01.2020 13:00:00 13,1 3,9 3 1 9 5 SE -
15.01.2020 12:00:00 12,0 4,3 3 2 10 6 SSE 0,0
15.01.2020 11:00:00 10,0 4,8 3 1 9 5 S 0,0
15.01.2020 10:00:00 8,4 5,1 0 0 8 4 ENE 0,0
15.01.2020 09:00:00 5,0 0,2 3 1 6 3 WSW 0,0
15.01.2020 08:00:00 4,5 0,0 1 0 5 3 WSW 0,0
15.01.2020 07:00:00 3,9 0,0 2 1 8 4 NNE -
15.01.2020 06:00:00 3,7 -0,5 0 0 7 4 NW 0,0
15.01.2020 05:00:00 3,6 -0,3 0 0 5 3 NW 0,0
15.01.2020 04:00:00 4,5 0,2 3 2 8 4 NW 0,0
15.01.2020 03:00:00 4,0 0,9 0 0 4 2 WSW 0,0
15.01.2020 02:00:00 - - 0 0 3 2 SSW 0,0
15.01.2020 01:00:00 4,1 0,0 1 0 3 2 NW -
15.01.2020 00:00:00 4,3 -0,3 0 0 3 1 NE 0,0
14.01.2020 23:00:00 5,1 -1,0 0 0 4 2 WNW 0,0
14.01.2020 22:00:00 6,5 -0,5 1 1 7 4 NW 0,0
14.01.2020 21:00:00 6,7 -1,0 1 0 9 5 W 0,0
14.01.2020 20:00:00 7,0 -0,5 0 0 8 4 NW 0,0
14.01.2020 19:00:00 8,7 0,0 6 3 11 6 SW -
14.01.2020 18:00:00 9,3 -0,7 5 3 11 6 SW 0,0
14.01.2020 17:00:00 11,9 0,4 5 3 14 8 SSE 0,0
14.01.2020 16:00:00 13,0 -0,7 6 3 15 8 S 0,0
14.01.2020 15:00:00 13,2 1,5 4 2 10 5 E 0,0
14.01.2020 14:00:00 14,0 2,3 3 2 8 5 ESE 0,0
14.01.2020 13:00:00 12,9 2,7 3 2 8 5 E -
14.01.2020 12:00:00 12,0 3,2 3 1 9 5 ESE 0,0
14.01.2020 11:00:00 10,5 3,0 2 1 8 4 NE 0,0
14.01.2020 10:00:00 7,2 3,4 1 0 4 2 ESE 0,0
14.01.2020 09:00:00 4,5 2,7 1 1 5 3 SW 0,0
14.01.2020 08:00:00 4,2 2,5 1 1 5 3 WSW 0,0
14.01.2020 07:00:00 4,6 2,9 3 2 7 4 WSW -
14.01.2020 06:00:00 4,6 3,0 1 0 9 5 W 0,0
14.01.2020 05:00:00 4,7 2,9 1 1 7 4 NNW 0,0
14.01.2020 04:00:00 4,4 1,7 1 1 9 5 NNW 0,0
14.01.2020 03:00:00 3,6 0,0 0 0 4 2 NW 0,0
14.01.2020 02:00:00 4,0 0,2 0 0 3 2 W 0,0
14.01.2020 01:00:00 4,0 0,0 1 1 4 2 WSW -
14.01.2020 00:00:00 4,2 0,6 0 0 6 4 NNE 0,0
13.01.2020 23:00:00 4,6 0,6 0 0 4 2 NW 0,0
13.01.2020 22:00:00 4,8 0,9 1 0 5 3 WSW 0,0
13.01.2020 21:00:00 5,4 1,1 1 1 3 2 NNE 0,0
13.01.2020 20:00:00 6,1 1,7 0 0 6 4 NNE 0,0
13.01.2020 19:00:00 6,7 1,9 3 2 6 3 NNE -
13.01.2020 18:00:00 8,1 1,9 0 0 4 2 ENE 0,0
13.01.2020 17:00:00 10,0 1,9 2 1 11 6 S 0,0
13.01.2020 16:00:00 10,9 2,5 4 2 14 7 SSW 0,0
13.01.2020 15:00:00 11,6 1,3 5 3 14 7 S 0,0
13.01.2020 14:00:00 11,6 2,7 3 2 8 5 SSE 0,0
13.01.2020 13:00:00 12,1 4,1 3 2 13 7 ESE -
13.01.2020 12:00:00 11,2 2,7 6 3 12 6 E 0,0
13.01.2020 11:00:00 10,4 3,9 4 2 10 6 E 0,0
13.01.2020 10:00:00 7,4 3,8 1 0 4 2 SSE 0,0
13.01.2020 09:00:00 4,7 0,0 0 0 5 3 W 0,0
13.01.2020 08:00:00 4,2 0,2 3 2 7 4 N 0,0
13.01.2020 07:00:00 3,8 0,4 1 1 5 3 WSW -
13.01.2020 06:00:00 3,9 0,4 2 1 6 3 N 0,0
13.01.2020 05:00:00 4,1 -0,7 1 1 5 3 NNE 0,0
13.01.2020 04:00:00 4,6 -0,7 0 0 5 3 W 0,0
13.01.2020 03:00:00 4,7 -1,0 0 0 4 2 NE 0,0
13.01.2020 02:00:00 4,4 -1,2 0 0 5 3 WSW 0,0
13.01.2020 01:00:00 4,9 -2,2 1 1 5 3 N -
13.01.2020 00:00:00 5,4 -1,7 1 1 4 2 NNW 0,0
12.01.2020 23:00:00 5,6 -2,0 0 0 4 2 NE 0,0
12.01.2020 22:00:00 5,7 -1,4 0 0 5 3 W 0,0
12.01.2020 21:00:00 6,6 -2,0 1 0 7 4 NW 0,0
12.01.2020 20:00:00 9,7 -1,4 8 4 13 7 NW 0,0
12.01.2020 19:00:00 8,1 0,9 4 2 7 4 N -
12.01.2020 18:00:00 8,9 0,4 3 2 5 3 N 0,0
12.01.2020 17:00:00 11,2 0,9 3 2 10 5 E 0,0
12.01.2020 16:00:00 12,0 1,9 3 1 13 7 SE 0,0
12.01.2020 15:00:00 13,0 1,3 3 1 14 7 ESE 0,0
12.01.2020 14:00:00 13,4 2,3 3 2 13 7 E 0,0
12.01.2020 13:00:00 12,8 1,1 3 2 14 8 SSW -

tt = temperature
td = dewpoint
ff = wind speed
fx = gusts
dd = wind direction
rr = precipitation

Next stations